sensor_id;sensor_type;location;lat;lon;timestamp;temperature;humidity
44863;DHT22;30597;49.628;10.850;2023-02-26T00:01:17;18.00;49.90
44863;DHT22;30597;49.628;10.850;2023-02-26T00:03:47;18.00;50.10
44863;DHT22;30597;49.628;10.850;2023-02-26T00:06:12;17.90;50.10
44863;DHT22;30597;49.628;10.850;2023-02-26T00:08:38;18.00;50.50
44863;DHT22;30597;49.628;10.850;2023-02-26T00:11:06;18.00;50.70
44863;DHT22;30597;49.628;10.850;2023-02-26T00:13:32;18.00;50.50
44863;DHT22;30597;49.628;10.850;2023-02-26T00:15:59;18.00;50.70
44863;DHT22;30597;49.628;10.850;2023-02-26T00:18:25;18.00;50.70
44863;DHT22;30597;49.628;10.850;2023-02-26T00:20:51;18.00;50.90
44863;DHT22;30597;49.628;10.850;2023-02-26T00:23:17;18.00;50.90
44863;DHT22;30597;49.628;10.850;2023-02-26T00:25:44;17.90;51.00
44863;DHT22;30597;49.628;10.850;2023-02-26T00:28:10;18.00;51.10
44863;DHT22;30597;49.628;10.850;2023-02-26T00:30:36;17.90;51.10
44863;DHT22;30597;49.628;10.850;2023-02-26T00:33:02;17.90;51.20
44863;DHT22;30597;49.628;10.850;2023-02-26T00:35:28;17.90;51.10
44863;DHT22;30597;49.628;10.850;2023-02-26T00:38:02;17.90;50.80
44863;DHT22;30597;49.628;10.850;2023-02-26T00:40:46;17.80;50.90
44863;DHT22;30597;49.628;10.850;2023-02-26T00:43:21;17.70;50.20
44863;DHT22;30597;49.628;10.850;2023-02-26T00:46:14;17.70;50.70
44863;DHT22;30597;49.628;10.850;2023-02-26T00:49:06;17.70;50.80
44863;DHT22;30597;49.628;10.850;2023-02-26T00:54:24;17.60;50.80
44863;DHT22;30597;49.628;10.850;2023-02-26T00:56:51;17.60;51.10
44863;DHT22;30597;49.628;10.850;2023-02-26T00:59:18;17.60;51.00
44863;DHT22;30597;49.628;10.850;2023-02-26T01:01:44;17.60;50.90
44863;DHT22;30597;49.628;10.850;2023-02-26T01:04:11;17.60;50.80
44863;DHT22;30597;49.628;10.850;2023-02-26T01:06:42;17.60;50.90
44863;DHT22;30597;49.628;10.850;2023-02-26T01:11:51;17.60;51.20
44863;DHT22;30597;49.628;10.850;2023-02-26T01:14:17;17.50;51.20
44863;DHT22;30597;49.628;10.850;2023-02-26T01:19:38;17.50;51.30
44863;DHT22;30597;49.628;10.850;2023-02-26T01:22:13;17.50;51.40
44863;DHT22;30597;49.628;10.850;2023-02-26T01:24:40;17.50;51.50
44863;DHT22;30597;49.628;10.850;2023-02-26T01:27:07;17.50;51.60
44863;DHT22;30597;49.628;10.850;2023-02-26T01:29:33;17.40;51.50
44863;DHT22;30597;49.628;10.850;2023-02-26T01:34:41;17.40;51.70
44863;DHT22;30597;49.628;10.850;2023-02-26T01:37:22;17.40;51.70
44863;DHT22;30597;49.628;10.850;2023-02-26T01:40:12;17.40;51.70
44863;DHT22;30597;49.628;10.850;2023-02-26T01:42:43;17.40;51.80
44863;DHT22;30597;49.628;10.850;2023-02-26T01:45:12;17.30;51.80
44863;DHT22;30597;49.628;10.850;2023-02-26T01:47:55;17.40;52.20
44863;DHT22;30597;49.628;10.850;2023-02-26T01:50:24;17.40;52.00
44863;DHT22;30597;49.628;10.850;2023-02-26T01:53:25;17.40;51.80
44863;DHT22;30597;49.628;10.850;2023-02-26T01:56:00;17.40;51.90
44863;DHT22;30597;49.628;10.850;2023-02-26T01:58:31;17.30;52.00
44863;DHT22;30597;49.628;10.850;2023-02-26T02:00:57;17.30;51.90
44863;DHT22;30597;49.628;10.850;2023-02-26T02:03:25;17.30;51.90
44863;DHT22;30597;49.628;10.850;2023-02-26T02:05:59;17.30;52.20
44863;DHT22;30597;49.628;10.850;2023-02-26T02:08:27;17.30;52.00
44863;DHT22;30597;49.628;10.850;2023-02-26T02:10:53;17.30;52.10
44863;DHT22;30597;49.628;10.850;2023-02-26T02:16:20;17.30;52.40
44863;DHT22;30597;49.628;10.850;2023-02-26T02:30:48;17.10;52.80
44863;DHT22;30597;49.628;10.850;2023-02-26T02:33:18;17.20;52.90
44863;DHT22;30597;49.628;10.850;2023-02-26T02:35:51;17.10;52.60
44863;DHT22;30597;49.628;10.850;2023-02-26T02:38:43;17.10;52.40
44863;DHT22;30597;49.628;10.850;2023-02-26T02:41:22;17.10;52.50
44863;DHT22;30597;49.628;10.850;2023-02-26T02:43:50;17.10;52.50
44863;DHT22;30597;49.628;10.850;2023-02-26T02:46:23;17.10;52.50
44863;DHT22;30597;49.628;10.850;2023-02-26T02:49:02;17.10;52.30
44863;DHT22;30597;49.628;10.850;2023-02-26T02:51:36;17.10;53.10
44863;DHT22;30597;49.628;10.850;2023-02-26T02:54:09;17.00;52.30
44863;DHT22;30597;49.628;10.850;2023-02-26T02:57:03;17.00;52.20
44863;DHT22;30597;49.628;10.850;2023-02-26T02:59:45;17.00;52.00
44863;DHT22;30597;49.628;10.850;2023-02-26T03:02:29;17.00;52.10
44863;DHT22;30597;49.628;10.850;2023-02-26T03:04:57;17.00;52.60
44863;DHT22;30597;49.628;10.850;2023-02-26T03:07:23;16.90;52.60
44863;DHT22;30597;49.628;10.850;2023-02-26T03:09:49;16.90;52.90
44863;DHT22;30597;49.628;10.850;2023-02-26T03:12:15;16.90;52.90
44863;DHT22;30597;49.628;10.850;2023-02-26T03:14:41;16.90;52.80
44863;DHT22;30597;49.628;10.850;2023-02-26T03:17:24;16.90;52.90
44863;DHT22;30597;49.628;10.850;2023-02-26T03:20:08;16.90;53.00
44863;DHT22;30597;49.628;10.850;2023-02-26T03:23:20;16.90;52.90
44863;DHT22;30597;49.628;10.850;2023-02-26T03:30:57;16.90;53.30
44863;DHT22;30597;49.628;10.850;2023-02-26T03:36:26;16.90;53.80
44863;DHT22;30597;49.628;10.850;2023-02-26T03:39:09;16.90;53.40
44863;DHT22;30597;49.628;10.850;2023-02-26T03:42:06;16.90;53.20
44863;DHT22;30597;49.628;10.850;2023-02-26T03:44:43;16.80;53.60
44863;DHT22;30597;49.628;10.850;2023-02-26T03:47:13;16.80;53.40
44863;DHT22;30597;49.628;10.850;2023-02-26T03:50:01;16.80;53.40
44863;DHT22;30597;49.628;10.850;2023-02-26T03:52:30;16.80;53.30
44863;DHT22;30597;49.628;10.850;2023-02-26T03:55:23;16.70;53.30
44863;DHT22;30597;49.628;10.850;2023-02-26T03:57:50;16.70;53.20
44863;DHT22;30597;49.628;10.850;2023-02-26T04:00:16;16.70;53.30
44863;DHT22;30597;49.628;10.850;2023-02-26T04:05:19;16.70;53.60
44863;DHT22;30597;49.628;10.850;2023-02-26T04:07:46;16.70;53.60
44863;DHT22;30597;49.628;10.850;2023-02-26T04:10:18;16.70;53.50
44863;DHT22;30597;49.628;10.850;2023-02-26T04:12:44;16.70;53.60
44863;DHT22;30597;49.628;10.850;2023-02-26T04:15:10;16.70;53.50
44863;DHT22;30597;49.628;10.850;2023-02-26T04:17:36;16.70;53.60
44863;DHT22;30597;49.628;10.850;2023-02-26T04:20:02;16.70;53.60
44863;DHT22;30597;49.628;10.850;2023-02-26T04:22:32;16.70;53.70
44863;DHT22;30597;49.628;10.850;2023-02-26T04:24:58;16.70;53.60
44863;DHT22;30597;49.628;10.850;2023-02-26T04:27:23;16.70;53.60
44863;DHT22;30597;49.628;10.850;2023-02-26T04:29:49;16.80;54.60
44863;DHT22;30597;49.628;10.850;2023-02-26T04:32:14;16.80;53.60
44863;DHT22;30597;49.628;10.850;2023-02-26T04:34:40;16.90;53.60
44863;DHT22;30597;49.628;10.850;2023-02-26T04:37:06;16.90;53.30
44863;DHT22;30597;49.628;10.850;2023-02-26T04:39:31;17.00;52.80
44863;DHT22;30597;49.628;10.850;2023-02-26T04:41:57;17.10;52.90
44863;DHT22;30597;49.628;10.850;2023-02-26T04:44:22;17.20;52.90
44863;DHT22;30597;49.628;10.850;2023-02-26T04:46:48;17.20;52.60
44863;DHT22;30597;49.628;10.850;2023-02-26T04:49:13;17.30;52.50
44863;DHT22;30597;49.628;10.850;2023-02-26T04:51:39;17.40;52.60
44863;DHT22;30597;49.628;10.850;2023-02-26T04:54:04;17.50;52.70
44863;DHT22;30597;49.628;10.850;2023-02-26T04:56:30;17.50;52.20
44863;DHT22;30597;49.628;10.850;2023-02-26T04:58:56;17.60;52.60
44863;DHT22;30597;49.628;10.850;2023-02-26T05:01:22;17.60;52.40
44863;DHT22;30597;49.628;10.850;2023-02-26T05:03:48;17.70;52.00
44863;DHT22;30597;49.628;10.850;2023-02-26T05:06:13;17.70;51.80
44863;DHT22;30597;49.628;10.850;2023-02-26T05:08:39;17.70;52.00
44863;DHT22;30597;49.628;10.850;2023-02-26T05:11:10;17.80;51.90
44863;DHT22;30597;49.628;10.850;2023-02-26T05:13:36;17.80;52.00
44863;DHT22;30597;49.628;10.850;2023-02-26T05:16:01;17.90;52.10
44863;DHT22;30597;49.628;10.850;2023-02-26T05:18:27;18.00;51.60
44863;DHT22;30597;49.628;10.850;2023-02-26T05:20:54;18.00;52.00
44863;DHT22;30597;49.628;10.850;2023-02-26T05:23:20;18.00;52.00
44863;DHT22;30597;49.628;10.850;2023-02-26T05:25:46;18.00;51.90
44863;DHT22;30597;49.628;10.850;2023-02-26T05:28:13;18.00;51.80
44863;DHT22;30597;49.628;10.850;2023-02-26T05:30:40;18.10;51.70
44863;DHT22;30597;49.628;10.850;2023-02-26T05:33:05;18.10;51.80
44863;DHT22;30597;49.628;10.850;2023-02-26T05:35:31;18.10;51.60
44863;DHT22;30597;49.628;10.850;2023-02-26T05:37:56;18.10;51.80
44863;DHT22;30597;49.628;10.850;2023-02-26T05:40:23;18.00;51.60
44863;DHT22;30597;49.628;10.850;2023-02-26T05:42:48;18.10;52.20
44863;DHT22;30597;49.628;10.850;2023-02-26T05:45:14;18.00;51.40
44863;DHT22;30597;49.628;10.850;2023-02-26T05:47:39;17.90;51.30
44863;DHT22;30597;49.628;10.850;2023-02-26T05:50:06;17.90;51.40
44863;DHT22;30597;49.628;10.850;2023-02-26T05:52:32;17.90;51.70
44863;DHT22;30597;49.628;10.850;2023-02-26T05:54:57;17.90;52.00
44863;DHT22;30597;49.628;10.850;2023-02-26T05:57:23;17.80;51.70
44863;DHT22;30597;49.628;10.850;2023-02-26T05:59:49;17.70;52.30
44863;DHT22;30597;49.628;10.850;2023-02-26T06:02:15;17.70;52.20
44863;DHT22;30597;49.628;10.850;2023-02-26T06:04:40;17.70;52.00
44863;DHT22;30597;49.628;10.850;2023-02-26T06:07:06;17.60;52.20
44863;DHT22;30597;49.628;10.850;2023-02-26T06:09:31;17.60;52.10
44863;DHT22;30597;49.628;10.850;2023-02-26T06:11:57;17.50;52.30
44863;DHT22;30597;49.628;10.850;2023-02-26T06:14:23;17.40;52.50
44863;DHT22;30597;49.628;10.850;2023-02-26T06:16:48;17.30;52.70
44863;DHT22;30597;49.628;10.850;2023-02-26T06:19:14;17.30;52.20
44863;DHT22;30597;49.628;10.850;2023-02-26T06:21:39;17.30;53.00
44863;DHT22;30597;49.628;10.850;2023-02-26T06:24:05;17.20;52.90
44863;DHT22;30597;49.628;10.850;2023-02-26T06:26:31;17.30;53.10
44863;DHT22;30597;49.628;10.850;2023-02-26T06:28:56;17.30;53.00
44863;DHT22;30597;49.628;10.850;2023-02-26T06:31:22;17.30;53.10
44863;DHT22;30597;49.628;10.850;2023-02-26T06:33:48;17.30;53.20
44863;DHT22;30597;49.628;10.850;2023-02-26T06:36:13;17.30;53.10
44863;DHT22;30597;49.628;10.850;2023-02-26T06:38:39;17.30;53.30
44863;DHT22;30597;49.628;10.850;2023-02-26T06:41:04;17.30;53.20
44863;DHT22;30597;49.628;10.850;2023-02-26T06:43:30;17.40;53.60
44863;DHT22;30597;49.628;10.850;2023-02-26T06:45:57;17.50;53.70
44863;DHT22;30597;49.628;10.850;2023-02-26T06:48:23;17.50;53.70
44863;DHT22;30597;49.628;10.850;2023-02-26T06:50:49;17.50;53.60
44863;DHT22;30597;49.628;10.850;2023-02-26T06:53:14;17.60;53.70
44863;DHT22;30597;49.628;10.850;2023-02-26T06:55:44;17.50;53.50
44863;DHT22;30597;49.628;10.850;2023-02-26T06:58:10;17.50;53.60
44863;DHT22;30597;49.628;10.850;2023-02-26T07:00:36;17.50;53.80
44863;DHT22;30597;49.628;10.850;2023-02-26T07:03:03;17.50;54.40
44863;DHT22;30597;49.628;10.850;2023-02-26T07:05:29;17.70;54.40
44863;DHT22;30597;49.628;10.850;2023-02-26T07:07:55;17.80;53.60
44863;DHT22;30597;49.628;10.850;2023-02-26T07:10:20;17.90;53.70
44863;DHT22;30597;49.628;10.850;2023-02-26T07:12:46;18.10;53.70
44863;DHT22;30597;49.628;10.850;2023-02-26T07:15:13;18.20;53.50
44863;DHT22;30597;49.628;10.850;2023-02-26T07:17:39;18.30;53.30
44863;DHT22;30597;49.628;10.850;2023-02-26T07:20:05;18.50;53.10
44863;DHT22;30597;49.628;10.850;2023-02-26T07:22:34;18.50;53.20
44863;DHT22;30597;49.628;10.850;2023-02-26T07:25:00;18.60;53.00
44863;DHT22;30597;49.628;10.850;2023-02-26T07:27:25;18.80;53.00
44863;DHT22;30597;49.628;10.850;2023-02-26T07:29:51;18.80;52.70
44863;DHT22;30597;49.628;10.850;2023-02-26T07:32:16;18.80;52.80
44863;DHT22;30597;49.628;10.850;2023-02-26T07:34:42;18.90;52.70
44863;DHT22;30597;49.628;10.850;2023-02-26T07:37:07;19.00;52.80
44863;DHT22;30597;49.628;10.850;2023-02-26T07:39:33;19.10;52.70
44863;DHT22;30597;49.628;10.850;2023-02-26T07:41:59;19.20;52.70
44863;DHT22;30597;49.628;10.850;2023-02-26T07:44:24;19.20;52.60
44863;DHT22;30597;49.628;10.850;2023-02-26T07:46:50;19.30;52.60
44863;DHT22;30597;49.628;10.850;2023-02-26T07:49:15;19.30;52.60
44863;DHT22;30597;49.628;10.850;2023-02-26T07:51:41;19.30;52.00
44863;DHT22;30597;49.628;10.850;2023-02-26T07:54:13;19.30;52.20
44863;DHT22;30597;49.628;10.850;2023-02-26T07:56:39;19.40;52.00
44863;DHT22;30597;49.628;10.850;2023-02-26T07:59:08;19.40;51.90
44863;DHT22;30597;49.628;10.850;2023-02-26T08:01:34;19.50;52.10
44863;DHT22;30597;49.628;10.850;2023-02-26T08:04:00;19.50;51.90
44863;DHT22;30597;49.628;10.850;2023-02-26T08:06:26;19.50;51.00
44863;DHT22;30597;49.628;10.850;2023-02-26T08:08:52;19.50;48.80
44863;DHT22;30597;49.628;10.850;2023-02-26T08:11:17;19.50;47.30
44863;DHT22;30597;49.628;10.850;2023-02-26T08:13:43;19.40;46.50
44863;DHT22;30597;49.628;10.850;2023-02-26T08:16:09;19.40;45.80
44863;DHT22;30597;49.628;10.850;2023-02-26T08:18:34;19.40;45.00
44863;DHT22;30597;49.628;10.850;2023-02-26T08:21:00;19.30;44.60
44863;DHT22;30597;49.628;10.850;2023-02-26T08:23:25;19.40;44.30
44863;DHT22;30597;49.628;10.850;2023-02-26T08:26:00;19.40;43.80
44863;DHT22;30597;49.628;10.850;2023-02-26T08:28:25;19.40;43.40
44863;DHT22;30597;49.628;10.850;2023-02-26T08:30:54;19.50;43.50
44863;DHT22;30597;49.628;10.850;2023-02-26T08:33:20;19.50;43.60
44863;DHT22;30597;49.628;10.850;2023-02-26T08:35:45;19.60;43.90
44863;DHT22;30597;49.628;10.850;2023-02-26T08:38:11;19.60;44.00
44863;DHT22;30597;49.628;10.850;2023-02-26T08:40:37;19.70;44.20
44863;DHT22;30597;49.628;10.850;2023-02-26T08:43:02;19.70;44.30
44863;DHT22;30597;49.628;10.850;2023-02-26T08:45:28;19.70;44.40
44863;DHT22;30597;49.628;10.850;2023-02-26T08:47:54;19.80;44.60
44863;DHT22;30597;49.628;10.850;2023-02-26T08:50:20;19.80;44.70
44863;DHT22;30597;49.628;10.850;2023-02-26T08:52:46;19.80;44.80
44863;DHT22;30597;49.628;10.850;2023-02-26T08:55:12;19.80;44.80
44863;DHT22;30597;49.628;10.850;2023-02-26T08:57:38;19.80;44.90
44863;DHT22;30597;49.628;10.850;2023-02-26T09:00:05;19.80;45.00
44863;DHT22;30597;49.628;10.850;2023-02-26T09:02:35;19.90;45.10
44863;DHT22;30597;49.628;10.850;2023-02-26T09:05:01;19.90;45.20
44863;DHT22;30597;49.628;10.850;2023-02-26T09:07:26;19.90;45.20
44863;DHT22;30597;49.628;10.850;2023-02-26T09:09:52;19.90;45.20
44863;DHT22;30597;49.628;10.850;2023-02-26T09:12:17;19.90;45.30
44863;DHT22;30597;49.628;10.850;2023-02-26T09:14:43;19.90;45.30
44863;DHT22;30597;49.628;10.850;2023-02-26T09:17:08;19.90;45.30
44863;DHT22;30597;49.628;10.850;2023-02-26T09:19:34;19.90;45.50
44863;DHT22;30597;49.628;10.850;2023-02-26T09:21:59;19.90;45.50
44863;DHT22;30597;49.628;10.850;2023-02-26T09:24:25;19.90;45.50
44863;DHT22;30597;49.628;10.850;2023-02-26T09:26:50;19.90;45.60
44863;DHT22;30597;49.628;10.850;2023-02-26T09:29:16;19.90;45.60
44863;DHT22;30597;49.628;10.850;2023-02-26T09:31:42;20.00;45.70
44863;DHT22;30597;49.628;10.850;2023-02-26T09:34:07;19.90;45.60
44863;DHT22;30597;49.628;10.850;2023-02-26T09:36:33;19.90;45.10
44863;DHT22;30597;49.628;10.850;2023-02-26T09:38:59;19.80;45.00
44863;DHT22;30597;49.628;10.850;2023-02-26T09:41:31;19.80;45.20
44863;DHT22;30597;49.628;10.850;2023-02-26T09:44:20;19.80;45.30
44863;DHT22;30597;49.628;10.850;2023-02-26T09:52:01;19.60;44.60
44863;DHT22;30597;49.628;10.850;2023-02-26T09:54:32;19.70;45.00
44863;DHT22;30597;49.628;10.850;2023-02-26T09:57:00;19.70;45.20
44863;DHT22;30597;49.628;10.850;2023-02-26T09:59:30;19.70;45.30
44863;DHT22;30597;49.628;10.850;2023-02-26T10:02:39;19.80;45.60
44863;DHT22;30597;49.628;10.850;2023-02-26T10:05:19;19.80;45.20
44863;DHT22;30597;49.628;10.850;2023-02-26T10:07:59;19.80;45.00
44863;DHT22;30597;49.628;10.850;2023-02-26T10:16:17;19.70;45.30
44863;DHT22;30597;49.628;10.850;2023-02-26T10:18:58;19.70;45.60
44863;DHT22;30597;49.628;10.850;2023-02-26T10:21:41;19.70;45.70
44863;DHT22;30597;49.628;10.850;2023-02-26T10:24:14;19.80;45.80
44863;DHT22;30597;49.628;10.850;2023-02-26T10:26:50;19.70;45.10
44863;DHT22;30597;49.628;10.850;2023-02-26T10:29:33;19.60;45.20
44863;DHT22;30597;49.628;10.850;2023-02-26T10:32:36;19.60;45.00
44863;DHT22;30597;49.628;10.850;2023-02-26T10:35:06;19.70;45.30
44863;DHT22;30597;49.628;10.850;2023-02-26T10:43:01;19.60;45.40
44863;DHT22;30597;49.628;10.850;2023-02-26T10:48:41;19.70;45.70
44863;DHT22;30597;49.628;10.850;2023-02-26T10:51:15;19.70;45.30
44863;DHT22;30597;49.628;10.850;2023-02-26T10:53:54;19.70;45.50
44863;DHT22;30597;49.628;10.850;2023-02-26T10:56:28;19.70;45.50
44863;DHT22;30597;49.628;10.850;2023-02-26T10:58:54;19.60;44.00
44863;DHT22;30597;49.628;10.850;2023-02-26T11:01:22;19.70;44.50
44863;DHT22;30597;49.628;10.850;2023-02-26T11:04:00;19.70;43.10
44863;DHT22;30597;49.628;10.850;2023-02-26T11:06:30;19.80;42.90
44863;DHT22;30597;49.628;10.850;2023-02-26T11:08:57;19.80;42.50
44863;DHT22;30597;49.628;10.850;2023-02-26T11:11:41;19.80;43.10
44863;DHT22;30597;49.628;10.850;2023-02-26T11:14:07;19.80;43.20
44863;DHT22;30597;49.628;10.850;2023-02-26T11:16:34;19.80;43.20
44863;DHT22;30597;49.628;10.850;2023-02-26T11:19:00;19.80;43.60
44863;DHT22;30597;49.628;10.850;2023-02-26T11:21:28;19.90;43.70
44863;DHT22;30597;49.628;10.850;2023-02-26T11:24:08;19.90;43.50
44863;DHT22;30597;49.628;10.850;2023-02-26T11:26:36;19.80;43.40
44863;DHT22;30597;49.628;10.850;2023-02-26T11:29:03;19.80;43.10
44863;DHT22;30597;49.628;10.850;2023-02-26T11:31:29;19.90;43.60
44863;DHT22;30597;49.628;10.850;2023-02-26T11:34:01;19.80;42.70
44863;DHT22;30597;49.628;10.850;2023-02-26T11:36:29;19.80;43.40
44863;DHT22;30597;49.628;10.850;2023-02-26T11:38:59;19.90;42.70
44863;DHT22;30597;49.628;10.850;2023-02-26T11:41:27;19.90;42.10
44863;DHT22;30597;49.628;10.850;2023-02-26T11:44:55;19.80;40.50
44863;DHT22;30597;49.628;10.850;2023-02-26T11:47:19;19.70;36.70
44863;DHT22;30597;49.628;10.850;2023-02-26T11:49:59;19.70;36.70
44863;DHT22;30597;49.628;10.850;2023-02-26T11:52:33;19.90;37.60
44863;DHT22;30597;49.628;10.850;2023-02-26T11:55:02;19.80;37.10
44863;DHT22;30597;49.628;10.850;2023-02-26T11:57:29;19.70;35.00
44863;DHT22;30597;49.628;10.850;2023-02-26T11:59:58;19.60;33.90
44863;DHT22;30597;49.628;10.850;2023-02-26T12:02:25;19.60;34.70
44863;DHT22;30597;49.628;10.850;2023-02-26T12:04:57;19.60;35.20
44863;DHT22;30597;49.628;10.850;2023-02-26T12:07:25;19.60;35.30
44863;DHT22;30597;49.628;10.850;2023-02-26T12:09:51;19.60;36.40
44863;DHT22;30597;49.628;10.850;2023-02-26T12:23:31;19.80;37.80
44863;DHT22;30597;49.628;10.850;2023-02-26T12:29:11;19.80;38.10
44863;DHT22;30597;49.628;10.850;2023-02-26T12:37:33;19.90;38.50
44863;DHT22;30597;49.628;10.850;2023-02-26T12:45:58;20.00;38.90
44863;DHT22;30597;49.628;10.850;2023-02-26T12:51:26;20.00;39.70
44863;DHT22;30597;49.628;10.850;2023-02-26T13:00:02;20.00;39.60
44863;DHT22;30597;49.628;10.850;2023-02-26T13:08:21;19.90;39.70
44863;DHT22;30597;49.628;10.850;2023-02-26T13:13:55;19.80;39.40
44863;DHT22;30597;49.628;10.850;2023-02-26T13:16:43;19.80;39.70
44863;DHT22;30597;49.628;10.850;2023-02-26T13:19:30;19.80;39.40
44863;DHT22;30597;49.628;10.850;2023-02-26T13:22:13;19.70;39.70
44863;DHT22;30597;49.628;10.850;2023-02-26T13:24:45;19.70;39.30
44863;DHT22;30597;49.628;10.850;2023-02-26T13:27:13;19.70;39.80
44863;DHT22;30597;49.628;10.850;2023-02-26T13:29:50;19.60;39.20
44863;DHT22;30597;49.628;10.850;2023-02-26T13:32:18;19.70;39.60
44863;DHT22;30597;49.628;10.850;2023-02-26T13:35:03;19.70;40.30
44863;DHT22;30597;49.628;10.850;2023-02-26T13:37:32;19.70;40.10
44863;DHT22;30597;49.628;10.850;2023-02-26T13:40:32;19.70;40.00
44863;DHT22;30597;49.628;10.850;2023-02-26T13:43:36;19.80;40.50
44863;DHT22;30597;49.628;10.850;2023-02-26T13:49:10;19.60;40.50
44863;DHT22;30597;49.628;10.850;2023-02-26T13:51:49;19.60;39.70
44863;DHT22;30597;49.628;10.850;2023-02-26T13:57:21;19.60;40.60
44863;DHT22;30597;49.628;10.850;2023-02-26T14:03:12;19.70;40.70
44863;DHT22;30597;49.628;10.850;2023-02-26T14:08:45;19.80;40.80
44863;DHT22;30597;49.628;10.850;2023-02-26T14:16:34;19.90;41.10
44863;DHT22;30597;49.628;10.850;2023-02-26T14:19:13;19.90;40.00
44863;DHT22;30597;49.628;10.850;2023-02-26T14:21:49;19.90;39.90
44863;DHT22;30597;49.628;10.850;2023-02-26T14:24:22;20.00;40.70
44863;DHT22;30597;49.628;10.850;2023-02-26T14:27:02;19.90;40.10
44863;DHT22;30597;49.628;10.850;2023-02-26T14:32:43;19.90;39.60
44863;DHT22;30597;49.628;10.850;2023-02-26T14:35:12;19.80;37.40
44863;DHT22;30597;49.628;10.850;2023-02-26T14:37:40;19.80;37.50
44863;DHT22;30597;49.628;10.850;2023-02-26T14:40:16;19.80;37.90
44863;DHT22;30597;49.628;10.850;2023-02-26T14:42:49;19.90;38.50
44863;DHT22;30597;49.628;10.850;2023-02-26T14:47:44;19.90;37.90
44863;DHT22;30597;49.628;10.850;2023-02-26T14:50:16;19.90;39.20
44863;DHT22;30597;49.628;10.850;2023-02-26T15:01:31;19.90;39.20
44863;DHT22;30597;49.628;10.850;2023-02-26T15:04:39;19.90;39.70
44863;DHT22;30597;49.628;10.850;2023-02-26T15:10:20;19.90;39.80
44863;DHT22;30597;49.628;10.850;2023-02-26T15:24:04;19.60;40.20
44863;DHT22;30597;49.628;10.850;2023-02-26T15:26:34;19.60;40.30
44863;DHT22;30597;49.628;10.850;2023-02-26T15:29:06;19.50;40.80
44863;DHT22;30597;49.628;10.850;2023-02-26T15:31:41;19.50;40.90
44863;DHT22;30597;49.628;10.850;2023-02-26T15:34:10;19.50;40.70
44863;DHT22;30597;49.628;10.850;2023-02-26T15:36:40;19.40;39.90
44863;DHT22;30597;49.628;10.850;2023-02-26T15:39:07;19.40;39.40
44863;DHT22;30597;49.628;10.850;2023-02-26T15:41:34;19.50;40.20
44863;DHT22;30597;49.628;10.850;2023-02-26T15:44:03;19.60;40.60
44863;DHT22;30597;49.628;10.850;2023-02-26T15:46:34;19.70;40.50
44863;DHT22;30597;49.628;10.850;2023-02-26T15:51:46;19.80;40.60
44863;DHT22;30597;49.628;10.850;2023-02-26T15:54:16;19.80;39.80
44863;DHT22;30597;49.628;10.850;2023-02-26T15:56:43;19.80;39.80
44863;DHT22;30597;49.628;10.850;2023-02-26T15:59:12;19.80;39.70
44863;DHT22;30597;49.628;10.850;2023-02-26T16:01:41;19.90;39.90
44863;DHT22;30597;49.628;10.850;2023-02-26T16:04:12;19.90;39.80
44863;DHT22;30597;49.628;10.850;2023-02-26T16:06:40;20.00;40.00
44863;DHT22;30597;49.628;10.850;2023-02-26T16:09:17;20.00;40.00
44863;DHT22;30597;49.628;10.850;2023-02-26T16:11:43;20.00;39.90
44863;DHT22;30597;49.628;10.850;2023-02-26T16:14:16;20.00;39.90
44863;DHT22;30597;49.628;10.850;2023-02-26T16:16:46;20.00;40.30
44863;DHT22;30597;49.628;10.850;2023-02-26T16:19:41;20.10;40.10
44863;DHT22;30597;49.628;10.850;2023-02-26T16:24:53;20.10;40.60
44863;DHT22;30597;49.628;10.850;2023-02-26T16:27:20;20.00;40.50
44863;DHT22;30597;49.628;10.850;2023-02-26T16:29:54;20.10;40.80
44863;DHT22;30597;49.628;10.850;2023-02-26T16:32:22;20.10;40.80
44863;DHT22;30597;49.628;10.850;2023-02-26T16:34:51;20.10;40.90
44863;DHT22;30597;49.628;10.850;2023-02-26T16:39:56;20.10;41.00
44863;DHT22;30597;49.628;10.850;2023-02-26T16:42:43;20.10;41.00
44863;DHT22;30597;49.628;10.850;2023-02-26T16:45:21;20.10;40.90
44863;DHT22;30597;49.628;10.850;2023-02-26T16:47:52;20.00;41.00
44863;DHT22;30597;49.628;10.850;2023-02-26T16:50:23;20.00;41.30
44863;DHT22;30597;49.628;10.850;2023-02-26T16:55:36;19.80;41.30
44863;DHT22;30597;49.628;10.850;2023-02-26T16:58:09;19.80;41.30
44863;DHT22;30597;49.628;10.850;2023-02-26T17:00:37;19.70;41.40
44863;DHT22;30597;49.628;10.850;2023-02-26T17:03:19;19.70;41.50
44863;DHT22;30597;49.628;10.850;2023-02-26T17:06:08;19.60;41.60
44863;DHT22;30597;49.628;10.850;2023-02-26T17:08:52;19.50;41.70
44863;DHT22;30597;49.628;10.850;2023-02-26T17:11:38;19.50;41.80
44863;DHT22;30597;49.628;10.850;2023-02-26T17:14:19;19.40;42.00
44863;DHT22;30597;49.628;10.850;2023-02-26T17:16:48;19.30;42.00
44863;DHT22;30597;49.628;10.850;2023-02-26T17:19:14;19.30;42.20
44863;DHT22;30597;49.628;10.850;2023-02-26T17:21:45;19.30;42.40
44863;DHT22;30597;49.628;10.850;2023-02-26T17:24:15;19.30;41.90
44863;DHT22;30597;49.628;10.850;2023-02-26T17:26:41;19.40;40.40
44863;DHT22;30597;49.628;10.850;2023-02-26T17:29:15;19.50;40.00
44863;DHT22;30597;49.628;10.850;2023-02-26T17:31:41;19.50;39.90
44863;DHT22;30597;49.628;10.850;2023-02-26T17:34:09;19.60;40.10
44863;DHT22;30597;49.628;10.850;2023-02-26T17:36:35;19.70;40.20
44863;DHT22;30597;49.628;10.850;2023-02-26T17:39:01;19.70;40.20
44863;DHT22;30597;49.628;10.850;2023-02-26T17:41:26;19.80;40.40
44863;DHT22;30597;49.628;10.850;2023-02-26T17:43:53;19.80;40.30
44863;DHT22;30597;49.628;10.850;2023-02-26T17:46:18;19.90;40.40
44863;DHT22;30597;49.628;10.850;2023-02-26T17:48:44;19.90;40.40
44863;DHT22;30597;49.628;10.850;2023-02-26T17:51:10;20.00;40.60
44863;DHT22;30597;49.628;10.850;2023-02-26T17:53:36;20.00;40.50
44863;DHT22;30597;49.628;10.850;2023-02-26T17:56:09;20.00;40.50
44863;DHT22;30597;49.628;10.850;2023-02-26T17:58:35;20.10;40.70
44863;DHT22;30597;49.628;10.850;2023-02-26T18:01:01;20.10;40.70
44863;DHT22;30597;49.628;10.850;2023-02-26T18:03:28;20.10;40.80
44863;DHT22;30597;49.628;10.850;2023-02-26T18:05:55;20.10;40.70
44863;DHT22;30597;49.628;10.850;2023-02-26T18:08:23;20.10;40.60
44863;DHT22;30597;49.628;10.850;2023-02-26T18:10:50;20.10;40.80
44863;DHT22;30597;49.628;10.850;2023-02-26T18:13:15;20.00;40.70